createdAt,value
2022-10-18T00:00:34.073Z,88.28
2022-10-18T00:01:34.073Z,88.59
2022-10-18T00:02:34.159Z,88.48
2022-10-18T00:03:34.087Z,89.29
2022-10-18T00:04:34.041Z,88.28
2022-10-18T00:05:34.039Z,89.09
2022-10-18T00:06:34.035Z,89.19
2022-10-18T00:07:34.092Z,88.79
2022-10-18T00:08:34.045Z,89.09
2022-10-18T00:09:34.016Z,88.79
2022-10-18T00:10:34.005Z,89.29
2022-10-18T00:11:34.053Z,89.19
2022-10-18T00:12:34.085Z,89.79
2022-10-18T00:13:33.990Z,90.10
2022-10-18T00:14:33.993Z,89.59
2022-10-18T00:15:33.969Z,88.68
2022-10-18T00:16:33.960Z,89.09
2022-10-18T00:17:34.010Z,89.09
2022-10-18T00:18:33.945Z,89.19
2022-10-18T00:19:33.959Z,89.50
2022-10-18T00:20:33.963Z,88.99
2022-10-18T00:21:33.938Z,89.50
2022-10-18T00:22:34.053Z,90.20
2022-10-18T00:23:33.932Z,90.45
2022-10-18T00:24:33.912Z,89.94
2022-10-18T00:25:33.901Z,90.61
2022-10-18T00:26:33.889Z,90.04
2022-10-18T00:27:33.876Z,89.74
2022-10-18T00:28:33.932Z,90.55
2022-10-18T00:29:33.886Z,90.55
2022-10-18T00:30:33.856Z,92.86
2022-10-18T00:31:33.858Z,93.68
2022-10-18T00:32:34.150Z,93.98
2022-10-18T00:33:33.837Z,93.57
2022-10-18T00:34:33.840Z,93.37
2022-10-18T00:35:33.822Z,94.28
2022-10-18T00:36:33.813Z,94.18
2022-10-18T00:37:33.804Z,94.59
2022-10-18T00:38:33.805Z,94.28
2022-10-18T00:39:33.824Z,95.29
2022-10-18T00:40:33.788Z,94.79
2022-10-18T00:41:33.785Z,94.99
2022-10-18T00:42:34.049Z,95.70
2022-10-18T00:43:33.757Z,94.68
2022-10-18T00:44:33.761Z,94.68
2022-10-18T00:45:33.776Z,94.48
2022-10-18T00:46:33.745Z,94.28
2022-10-18T00:47:33.732Z,94.89
2022-10-18T00:48:33.737Z,95.04
2022-10-18T00:49:33.724Z,95.85
2022-10-18T00:50:33.716Z,95.04
2022-10-18T00:51:33.732Z,94.68
2022-10-18T00:52:33.976Z,93.93
2022-10-18T00:53:33.705Z,94.24
2022-10-18T00:54:33.692Z,94.64
2022-10-18T00:55:33.688Z,94.54
2022-10-18T00:56:33.692Z,94.84
2022-10-18T00:57:33.655Z,93.84
2022-10-18T00:58:34.672Z,93.33
2022-10-18T00:59:33.655Z,93.33
2022-10-18T01:00:33.652Z,93.02
2022-10-18T01:01:33.698Z,93.63
2022-10-18T01:02:33.895Z,94.64
2022-10-18T01:03:33.639Z,94.74
2022-10-18T01:04:33.617Z,94.44
2022-10-18T01:05:33.614Z,94.74
2022-10-18T01:06:33.612Z,94.24
2022-10-18T01:07:33.947Z,94.28
2022-10-18T01:08:33.604Z,95.39
2022-10-18T01:09:33.584Z,96.55
2022-10-18T01:10:33.581Z,96.75
2022-10-18T01:11:33.568Z,97.86
2022-10-18T01:12:33.572Z,97.76
2022-10-18T01:13:33.573Z,98.11
2022-10-18T01:14:33.546Z,97.86
2022-10-18T01:15:33.537Z,97.96
2022-10-18T01:16:33.554Z,97.76
2022-10-18T01:17:33.581Z,98.07
2022-10-18T01:18:33.536Z,97.81
2022-10-18T01:19:33.516Z,97.66
2022-10-18T01:20:33.503Z,98.16
2022-10-18T01:21:33.512Z,98.07
2022-10-18T01:22:33.486Z,98.36
2022-10-18T01:23:33.496Z,98.92
2022-10-18T01:24:33.477Z,99.22
2022-10-18T01:25:33.468Z,99.52
2022-10-18T01:26:33.476Z,99.48
2022-10-18T01:27:33.710Z,99.83
2022-10-18T01:28:33.475Z,99.99
2022-10-18T01:29:33.435Z,99.99
2022-10-18T01:30:33.437Z,99.99
2022-10-18T01:31:33.496Z,99.99
2022-10-18T01:32:33.418Z,99.99
2022-10-18T01:33:33.446Z,99.99
2022-10-18T01:34:33.412Z,99.99
2022-10-18T01:35:33.413Z,99.99
2022-10-18T01:36:33.392Z,99.99
2022-10-18T01:37:33.780Z,99.99
2022-10-18T01:38:33.386Z,99.99
2022-10-18T01:39:33.374Z,99.99
2022-10-18T01:40:33.377Z,99.99
2022-10-18T01:41:33.349Z,99.99
2022-10-18T01:42:34.377Z,99.99
2022-10-18T01:43:33.346Z,99.99
2022-10-18T01:44:33.349Z,99.99
2022-10-18T01:45:33.332Z,99.52
2022-10-18T01:46:33.322Z,99.62
2022-10-18T01:47:33.833Z,99.22
2022-10-18T01:48:33.329Z,98.71
2022-10-18T01:49:33.298Z,98.61
2022-10-18T01:50:33.298Z,98.92
2022-10-18T01:51:33.290Z,98.51
2022-10-18T01:52:33.582Z,98.27
2022-10-18T01:53:33.304Z,98.61
2022-10-18T01:54:33.264Z,98.51
2022-10-18T01:55:33.257Z,98.51
2022-10-18T01:56:33.241Z,98.82
2022-10-18T01:57:33.236Z,98.41
2022-10-18T01:58:33.261Z,98.51
2022-10-18T01:59:33.235Z,98.16
2022-10-18T02:00:33.245Z,98.01
2022-10-18T02:01:33.220Z,97.86
2022-10-18T02:02:33.330Z,97.16
2022-10-18T02:03:33.204Z,96.34
2022-10-18T02:04:33.202Z,96.75
2022-10-18T02:05:33.172Z,96.45
2022-10-18T02:06:33.176Z,97.25
2022-10-18T02:07:33.170Z,96.25
2022-10-18T02:08:33.160Z,96.14
2022-10-18T02:09:33.183Z,95.74
2022-10-18T02:10:33.158Z,95.94
2022-10-18T02:11:33.141Z,96.25
2022-10-18T02:12:33.486Z,95.74
2022-10-18T02:13:33.129Z,96.14
2022-10-18T02:14:33.124Z,96.65
2022-10-18T02:15:33.109Z,96.25
2022-10-18T02:16:33.116Z,96.09
2022-10-18T02:17:33.096Z,96.29
2022-10-18T02:18:33.092Z,96.14
2022-10-18T02:19:33.096Z,96.34
2022-10-18T02:20:33.108Z,95.89
2022-10-18T02:21:33.062Z,96.39
2022-10-18T02:22:33.431Z,96.69
2022-10-18T02:23:33.063Z,96.55
2022-10-18T02:24:33.053Z,96.09
2022-10-18T02:25:33.041Z,96.04
2022-10-18T02:26:33.028Z,95.34
2022-10-18T02:27:33.019Z,96.04
2022-10-18T02:28:33.025Z,95.94
2022-10-18T02:29:33.022Z,95.54
2022-10-18T02:30:33.009Z,95.98
2022-10-18T02:31:33.004Z,96.29
2022-10-18T02:32:33.297Z,96.64
2022-10-18T02:33:32.980Z,96.94
2022-10-18T02:34:32.980Z,96.74
2022-10-18T02:35:32.968Z,97.05
2022-10-18T02:36:32.953Z,96.94
2022-10-18T02:37:32.978Z,96.23
2022-10-18T02:38:32.951Z,97.34
2022-10-18T02:39:32.939Z,96.18
2022-10-18T02:40:32.935Z,96.44
2022-10-18T02:41:32.916Z,97.34
2022-10-18T02:42:33.165Z,96.78
2022-10-18T02:43:32.920Z,96.78
2022-10-18T02:44:32.899Z,96.98
2022-10-18T02:45:32.888Z,96.34
2022-10-18T02:46:32.892Z,96.84
2022-10-18T02:47:33.243Z,96.23
2022-10-18T02:48:32.879Z,96.74
2022-10-18T02:49:32.867Z,96.13
2022-10-18T02:50:32.852Z,96.44
2022-10-18T02:51:32.845Z,96.23
2022-10-18T02:52:32.840Z,96.44
2022-10-18T02:53:32.853Z,96.64
2022-10-18T02:54:32.829Z,95.63
2022-10-18T02:55:32.832Z,96.34
2022-10-18T02:56:32.822Z,96.34
2022-10-18T02:57:33.089Z,96.34
2022-10-18T02:58:32.807Z,96.03
2022-10-18T02:59:32.803Z,96.44
2022-10-18T03:00:32.783Z,95.98
2022-10-18T03:01:32.820Z,96.03
2022-10-18T03:02:32.773Z,96.58
2022-10-18T03:03:32.753Z,96.64
2022-10-18T03:04:32.790Z,96.23
2022-10-18T03:05:32.745Z,96.23
2022-10-18T03:06:32.741Z,96.74
2022-10-18T03:07:32.991Z,96.54
2022-10-18T03:08:32.726Z,96.98
2022-10-18T03:09:32.730Z,96.89
2022-10-18T03:10:32.754Z,96.89
2022-10-18T03:11:32.713Z,96.98
2022-10-18T03:12:32.698Z,96.89
2022-10-18T03:13:32.693Z,97.69
2022-10-18T03:14:32.674Z,97.29
2022-10-18T03:15:32.685Z,96.89
2022-10-18T03:16:32.662Z,97.80
2022-10-18T03:17:32.993Z,97.90
2022-10-18T03:18:32.662Z,96.69
2022-10-18T03:19:32.646Z,96.69
2022-10-18T03:20:32.638Z,96.23
2022-10-18T03:21:32.629Z,96.38
2022-10-18T03:22:32.624Z,96.98
2022-10-18T03:23:32.623Z,96.89
2022-10-18T03:24:32.610Z,96.69
2022-10-18T03:25:32.602Z,96.28
2022-10-18T03:26:32.590Z,96.23
2022-10-18T03:27:32.970Z,96.48
2022-10-18T03:28:32.653Z,95.83
2022-10-18T03:29:32.574Z,96.18
2022-10-18T03:30:32.565Z,96.23
2022-10-18T03:31:32.572Z,96.44
2022-10-18T03:32:32.853Z,96.58
2022-10-18T03:33:32.583Z,96.54
2022-10-18T03:34:32.533Z,95.93
2022-10-18T03:35:32.525Z,95.73
2022-10-18T03:36:32.525Z,95.63
2022-10-18T03:37:32.529Z,96.34
2022-10-18T03:38:32.517Z,95.93
2022-10-18T03:39:32.531Z,95.43
2022-10-18T03:40:32.501Z,94.92
2022-10-18T03:41:32.480Z,94.92
2022-10-18T03:42:32.890Z,95.02
2022-10-18T03:43:32.489Z,94.92
2022-10-18T03:44:32.485Z,94.21
2022-10-18T03:45:32.461Z,94.42
2022-10-18T03:46:32.455Z,94.51
2022-10-18T03:47:32.441Z,94.42
2022-10-18T03:48:32.435Z,94.51
2022-10-18T03:50:32.433Z,95.12
2022-10-18T03:51:32.426Z,95.53
2022-10-18T03:52:32.730Z,95.12
2022-10-18T03:53:32.393Z,94.96
2022-10-18T03:54:32.397Z,95.27
2022-10-18T03:55:32.405Z,95.27
2022-10-18T03:56:32.369Z,94.82
2022-10-18T03:57:32.376Z,94.92
2022-10-18T03:58:35.375Z,94.82
2022-10-18T03:59:32.354Z,95.83
2022-10-18T04:00:32.361Z,96.13
2022-10-18T04:01:32.375Z,96.78
2022-10-18T04:02:32.747Z,96.28
2022-10-18T04:03:32.326Z,96.58
2022-10-18T04:04:32.327Z,95.78
2022-10-18T04:05:32.322Z,96.28
2022-10-18T04:06:32.310Z,96.28
2022-10-18T04:07:32.332Z,96.08
2022-10-18T04:08:32.297Z,95.47
2022-10-18T04:09:32.285Z,95.98
2022-10-18T04:10:32.303Z,96.08
2022-10-18T04:11:32.290Z,96.18
2022-10-18T04:12:32.481Z,96.58
2022-10-18T04:13:33.267Z,96.48
2022-10-18T04:14:32.270Z,95.57
2022-10-18T04:15:32.291Z,96.18
2022-10-18T04:16:32.275Z,95.78
2022-10-18T04:17:32.446Z,95.17
2022-10-18T04:18:32.229Z,95.07
2022-10-18T04:19:32.251Z,95.07
2022-10-18T04:20:32.205Z,95.37
2022-10-18T04:21:32.214Z,94.96
2022-10-18T04:22:32.201Z,95.17
2022-10-18T04:23:35.061Z,94.76
2022-10-18T04:24:32.223Z,94.76
2022-10-18T04:25:32.221Z,95.07
2022-10-18T04:26:32.195Z,95.27
2022-10-18T04:27:32.456Z,95.07
2022-10-18T04:28:32.209Z,95.67
2022-10-18T04:29:32.153Z,95.57
2022-10-18T04:30:32.167Z,95.78
2022-10-18T04:31:32.139Z,95.78
2022-10-18T04:32:32.129Z,95.87
2022-10-18T04:33:32.137Z,96.18
2022-10-18T04:34:32.179Z,95.87
2022-10-18T04:35:32.101Z,96.48
2022-10-18T04:36:32.099Z,96.28
2022-10-18T04:37:32.323Z,96.28
2022-10-18T04:38:32.090Z,95.57
2022-10-18T04:39:32.083Z,95.37
2022-10-18T04:40:32.070Z,94.92
2022-10-18T04:41:32.066Z,95.07
2022-10-18T04:42:32.105Z,94.36
2022-10-18T04:43:32.115Z,94.96
2022-10-18T04:44:32.049Z,94.21
2022-10-18T04:45:32.041Z,94.21
2022-10-18T04:46:32.042Z,94.82
2022-10-18T04:47:32.392Z,94.96
2022-10-18T04:48:32.026Z,94.82
2022-10-18T04:49:32.014Z,95.02
2022-10-18T04:50:31.997Z,94.92
2022-10-18T04:51:32.007Z,95.07
2022-10-18T04:52:31.985Z,96.18
2022-10-18T04:53:31.989Z,95.72
2022-10-18T04:54:31.965Z,96.53
2022-10-18T04:55:31.957Z,96.02
2022-10-18T04:56:31.954Z,96.33
2022-10-18T04:57:33.657Z,96.33
2022-10-18T04:58:32.962Z,95.92
2022-10-18T04:59:31.927Z,96.42
2022-10-18T05:00:33.544Z,95.92
2022-10-18T05:01:31.959Z,96.02
2022-10-18T05:02:32.285Z,95.62
2022-10-18T05:03:31.901Z,95.92
2022-10-18T05:04:31.908Z,96.53
2022-10-18T05:05:49.751Z,95.47
2022-10-18T05:06:33.882Z,94.96
2022-10-18T05:07:31.873Z,95.11
2022-10-18T05:08:31.886Z,95.57
2022-10-18T05:09:31.876Z,95.17
2022-10-18T05:10:31.848Z,95.62
2022-10-18T05:11:31.849Z,96.33
2022-10-18T05:12:32.138Z,96.12
2022-10-18T05:13:31.828Z,96.63
2022-10-18T05:14:31.857Z,96.53
2022-10-18T05:15:31.809Z,96.83
2022-10-18T05:16:31.816Z,96.57
2022-10-18T05:17:31.805Z,97.18
2022-10-18T05:18:31.805Z,97.58
2022-10-18T05:19:31.794Z,98.19
2022-10-18T05:20:31.794Z,97.99
2022-10-18T05:21:31.780Z,97.99
2022-10-18T05:22:32.010Z,98.09
2022-10-18T05:23:31.765Z,98.29
2022-10-18T05:24:31.745Z,97.18
2022-10-18T05:25:32.752Z,97.38
2022-10-18T05:26:31.771Z,98.19
2022-10-18T05:27:31.739Z,98.19
2022-10-18T05:28:39.781Z,97.58
2022-10-18T05:29:33.723Z,97.79
2022-10-18T05:30:31.713Z,98.09
2022-10-18T05:31:31.708Z,98.09
2022-10-18T05:32:31.985Z,98.44
2022-10-18T05:33:31.687Z,98.34
2022-10-18T05:34:31.682Z,98.74
2022-10-18T05:35:31.663Z,98.85
2022-10-18T05:36:31.674Z,98.54
2022-10-18T05:37:31.671Z,98.14
2022-10-18T05:38:31.793Z,98.60
2022-10-18T05:39:31.647Z,98.39
2022-10-18T05:40:31.639Z,98.39
2022-10-18T05:41:31.647Z,97.79
2022-10-18T05:42:31.876Z,98.19
2022-10-18T05:43:31.629Z,98.29
2022-10-18T05:44:31.622Z,98.44
2022-10-18T05:45:31.606Z,98.09
2022-10-18T05:46:31.613Z,97.99
2022-10-18T05:47:31.626Z,97.79
2022-10-18T05:48:31.577Z,97.18
2022-10-18T05:49:31.570Z,96.78
2022-10-18T05:50:35.489Z,97.08
2022-10-18T05:51:31.612Z,96.78
2022-10-18T05:52:31.756Z,96.78
2022-10-18T05:53:36.837Z,96.67
2022-10-18T05:54:33.551Z,96.37
2022-10-18T05:55:31.535Z,97.03
2022-10-18T05:56:31.593Z,96.37
2022-10-18T05:57:31.827Z,96.33
2022-10-18T05:58:31.542Z,96.33
2022-10-18T05:59:31.507Z,96.93
2022-10-18T06:00:31.518Z,96.83
2022-10-18T06:01:31.486Z,96.22
2022-10-18T06:02:31.558Z,96.07
2022-10-18T06:03:31.479Z,95.92
2022-10-18T06:04:31.470Z,95.82
2022-10-18T06:05:31.496Z,96.33
2022-10-18T06:06:31.452Z,96.83
2022-10-18T06:07:31.810Z,96.73
2022-10-18T06:08:31.449Z,96.63
2022-10-18T06:09:31.450Z,96.63
2022-10-18T06:10:31.427Z,95.82
2022-10-18T06:11:31.409Z,95.62
2022-10-18T06:12:31.399Z,95.82
2022-10-18T06:13:32.515Z,95.62
2022-10-18T06:14:31.381Z,95.31
2022-10-18T06:15:32.385Z,95.82
2022-10-18T06:16:32.636Z,95.47
2022-10-18T06:17:32.680Z,95.62
2022-10-18T06:18:31.389Z,95.42
2022-10-18T06:19:31.343Z,96.53
2022-10-18T06:20:31.345Z,95.72
2022-10-18T06:21:31.329Z,96.42
2022-10-18T06:22:32.343Z,96.42
2022-10-18T06:23:31.342Z,95.51
2022-10-18T06:24:31.323Z,96.63
2022-10-18T06:25:31.342Z,96.12
2022-10-18T06:26:31.311Z,96.42
2022-10-18T06:27:31.513Z,96.53
2022-10-18T06:28:31.341Z,97.94
2022-10-18T06:29:31.280Z,96.73
2022-10-18T06:30:31.290Z,96.78
2022-10-18T06:31:31.283Z,97.28
2022-10-18T06:32:31.440Z,97.24
2022-10-18T06:33:31.255Z,97.28
2022-10-18T06:34:31.245Z,97.14
2022-10-18T06:35:31.252Z,97.54
2022-10-18T06:36:31.230Z,98.35
2022-10-18T06:37:31.551Z,98.14
2022-10-18T06:38:31.218Z,98.14
2022-10-18T06:39:31.209Z,97.89
2022-10-18T06:40:31.221Z,98.35
2022-10-18T06:41:31.203Z,98.05
2022-10-18T06:42:31.418Z,98.35
2022-10-18T06:43:31.185Z,98.45
2022-10-18T06:44:31.174Z,98.14
2022-10-18T06:45:31.187Z,98.35
2022-10-18T06:46:31.157Z,98.14
2022-10-18T06:47:31.172Z,98.05
2022-10-18T06:48:31.139Z,98.25
2022-10-18T06:49:31.137Z,98.14
2022-10-18T06:50:31.125Z,98.55
2022-10-18T06:51:31.132Z,98.35
2022-10-18T06:52:31.474Z,98.35
2022-10-18T06:53:31.105Z,98.14
2022-10-18T06:54:31.093Z,97.90
2022-10-18T06:55:31.089Z,97.94
2022-10-18T06:56:31.082Z,98.14
2022-10-18T06:57:31.090Z,98.10
2022-10-18T06:58:31.120Z,98.10
2022-10-18T06:59:31.534Z,97.39
2022-10-18T07:00:31.050Z,97.60
2022-10-18T07:01:31.105Z,97.49
2022-10-18T07:02:31.159Z,97.29
2022-10-18T07:03:31.035Z,97.19
2022-10-18T07:04:31.022Z,97.09
2022-10-18T07:05:31.009Z,97.09
2022-10-18T07:06:31.018Z,96.78
2022-10-18T07:07:31.430Z,96.23
2022-10-18T07:08:31.174Z,96.94
2022-10-18T07:09:30.993Z,96.94
2022-10-18T07:10:30.985Z,96.94
2022-10-18T07:11:30.983Z,96.23
2022-10-18T07:12:30.964Z,96.64
2022-10-18T07:13:32.845Z,96.84
2022-10-18T07:14:31.955Z,96.84
2022-10-18T07:15:30.954Z,96.23
2022-10-18T07:16:30.940Z,95.93
2022-10-18T07:17:31.227Z,96.29
2022-10-18T07:18:32.289Z,95.78
2022-10-18T07:19:30.917Z,95.78
2022-10-18T07:20:30.905Z,96.09
2022-10-18T07:21:30.905Z,95.48
2022-10-18T07:22:30.889Z,94.87
2022-10-18T07:23:30.889Z,94.27
2022-10-18T07:24:30.885Z,94.47
2022-10-18T07:25:30.861Z,94.37
2022-10-18T07:26:30.864Z,94.27
2022-10-18T07:27:31.311Z,94.27
2022-10-18T07:28:30.879Z,94.98
2022-10-18T07:29:30.857Z,94.78
2022-10-18T07:30:30.832Z,95.07
2022-10-18T07:31:30.846Z,95.07
2022-10-18T07:32:30.820Z,94.27
2022-10-18T07:33:30.816Z,94.27
2022-10-18T07:34:30.809Z,94.23
2022-10-18T07:35:30.803Z,94.23
2022-10-18T07:36:30.796Z,94.32
2022-10-18T07:37:30.988Z,94.43
2022-10-18T07:38:30.780Z,94.53
2022-10-18T07:39:30.794Z,94.73
2022-10-18T07:40:30.769Z,94.63
2022-10-18T07:41:30.769Z,94.93
2022-10-18T07:42:30.753Z,93.88
2022-10-18T07:43:30.802Z,94.08
2022-10-18T07:44:30.761Z,93.88
2022-10-18T07:45:30.753Z,93.37
2022-10-18T07:46:30.724Z,93.68
2022-10-18T07:47:32.813Z,93.37
2022-10-18T07:48:30.712Z,93.27
2022-10-18T07:49:30.736Z,93.62
2022-10-18T07:50:30.697Z,93.27
2022-10-18T07:51:30.738Z,93.48
2022-10-18T07:52:30.676Z,93.37
2022-10-18T07:53:30.672Z,93.48
2022-10-18T07:54:30.681Z,93.57
2022-10-18T07:55:30.684Z,93.68
2022-10-18T07:56:30.668Z,93.77
2022-10-18T07:57:30.979Z,93.17
2022-10-18T07:58:30.641Z,93.68
2022-10-18T07:59:30.632Z,93.68
2022-10-18T08:00:30.648Z,93.48
2022-10-18T08:01:30.681Z,93.48
2022-10-18T08:02:30.609Z,93.57
2022-10-18T08:03:30.613Z,93.48
2022-10-18T08:04:30.609Z,93.48
2022-10-18T08:05:30.604Z,92.97
2022-10-18T08:06:30.580Z,92.66
2022-10-18T08:07:30.982Z,93.27
2022-10-18T08:08:30.576Z,92.86
2022-10-18T08:09:30.561Z,92.46
2022-10-18T08:10:30.569Z,92.36
2022-10-18T08:11:30.544Z,92.36
2022-10-18T08:12:30.540Z,92.42
2022-10-18T08:13:30.549Z,92.77
2022-10-18T08:14:30.520Z,92.22
2022-10-18T08:15:30.519Z,92.42
2022-10-18T08:17:30.890Z,92.47
2022-10-18T08:18:30.504Z,92.72
2022-10-18T08:19:30.496Z,92.62
2022-10-18T08:20:31.353Z,91.41
2022-10-18T08:21:31.538Z,91.91
2022-10-18T08:22:30.477Z,92.02
2022-10-18T08:23:30.473Z,91.41
2022-10-18T08:24:30.464Z,91.31
2022-10-18T08:25:30.515Z,91.51
2022-10-18T08:26:30.468Z,92.22
2022-10-18T08:27:30.707Z,92.12
2022-10-18T08:28:30.535Z,91.91
2022-10-18T08:29:32.067Z,91.97
2022-10-18T08:30:31.441Z,91.77
2022-10-18T08:31:30.440Z,91.27
2022-10-18T08:32:30.888Z,90.36
2022-10-18T08:33:30.407Z,90.66
2022-10-18T08:34:30.438Z,90.50
2022-10-18T08:35:30.397Z,91.41
2022-10-18T08:36:30.403Z,91.51
2022-10-18T08:37:30.867Z,91.61
2022-10-18T08:38:30.379Z,91.71
2022-10-18T08:39:30.372Z,91.82
2022-10-18T08:40:30.360Z,91.41
2022-10-18T08:41:30.356Z,92.26
2022-10-18T08:42:30.904Z,92.06
2022-10-18T08:43:30.372Z,92.22
2022-10-18T08:44:30.354Z,92.26
2022-10-18T08:45:41.808Z,92.22
2022-10-18T08:46:32.348Z,92.26
2022-10-18T08:47:30.732Z,92.32
2022-10-18T08:48:30.319Z,92.32
2022-10-18T08:49:31.299Z,92.32
2022-10-18T08:50:30.283Z,92.46
2022-10-18T08:51:30.297Z,92.42
2022-10-18T08:52:30.332Z,92.82
2022-10-18T08:53:30.296Z,92.82
2022-10-18T08:54:30.267Z,92.93
2022-10-18T08:55:30.264Z,92.62
2022-10-18T08:56:30.257Z,92.82
2022-10-18T08:57:30.669Z,93.07
2022-10-18T08:58:30.252Z,93.17
2022-10-18T08:59:30.240Z,93.17
2022-10-18T09:00:30.228Z,93.37
2022-10-18T09:01:30.228Z,93.73
2022-10-18T09:02:30.669Z,93.13
2022-10-18T09:03:30.308Z,93.13
2022-10-18T09:04:30.213Z,93.23
2022-10-18T09:05:30.196Z,92.82
2022-10-18T09:06:30.187Z,93.02
2022-10-18T09:07:30.179Z,92.72
2022-10-18T09:08:30.171Z,92.42
2022-10-18T09:09:30.179Z,92.42
2022-10-18T09:10:30.161Z,92.32
2022-10-18T09:11:30.168Z,92.27
2022-10-18T09:12:30.396Z,92.18
2022-10-18T09:13:30.138Z,92.07
2022-10-18T09:14:30.134Z,92.38
2022-10-18T09:15:30.126Z,91.97
2022-10-18T09:16:30.132Z,92.07
2022-10-18T09:17:30.108Z,91.77
2022-10-18T09:18:30.111Z,92.38
2022-10-18T09:19:30.091Z,91.67
2022-10-18T09:20:31.091Z,91.37
2022-10-18T09:21:30.092Z,91.47
2022-10-18T09:22:30.449Z,91.77
2022-10-18T09:23:30.064Z,92.27
2022-10-18T09:24:30.055Z,91.93
2022-10-18T09:25:31.055Z,91.77
2022-10-18T09:26:30.068Z,91.93
2022-10-18T09:27:30.039Z,92.33
2022-10-18T09:28:30.078Z,92.43
2022-10-18T09:29:30.065Z,92.58
2022-10-18T09:30:30.015Z,92.54
2022-10-18T09:31:30.020Z,92.90
2022-10-18T09:32:30.391Z,92.13
2022-10-18T09:33:30.030Z,92.19
2022-10-18T09:34:29.999Z,91.69
2022-10-18T09:35:29.997Z,91.38
2022-10-18T09:36:29.993Z,91.28
2022-10-18T09:37:29.999Z,90.07
2022-10-18T09:38:29.975Z,90.88
2022-10-18T09:39:29.955Z,91.08
2022-10-18T09:40:29.964Z,91.64
2022-10-18T09:41:29.956Z,90.84
2022-10-18T09:42:30.423Z,90.94
2022-10-18T09:43:29.939Z,90.94
2022-10-18T09:44:29.966Z,91.14
2022-10-18T09:45:29.912Z,90.29
2022-10-18T09:46:30.289Z,90.49
2022-10-18T09:48:29.915Z,90.65
2022-10-18T09:49:29.895Z,88.90
2022-10-18T09:50:30.808Z,88.59
2022-10-18T09:51:29.887Z,88.54
2022-10-18T09:52:30.115Z,89.10
2022-10-18T09:53:29.884Z,86.48
2022-10-18T09:54:29.951Z,87.19
2022-10-18T09:55:29.855Z,88.29
2022-10-18T09:56:29.855Z,87.49
2022-10-18T09:57:30.205Z,87.69
2022-10-18T09:58:29.836Z,88.51
2022-10-18T09:59:29.859Z,88.61
2022-10-18T10:00:29.826Z,88.77
2022-10-18T10:01:29.819Z,87.12
2022-10-18T10:02:29.948Z,85.11
2022-10-18T10:03:29.817Z,88.39
2022-10-18T10:04:29.809Z,87.14
2022-10-18T10:05:29.792Z,86.74
2022-10-18T10:06:29.847Z,85.03
2022-10-18T10:07:32.601Z,82.23
2022-10-18T10:08:30.795Z,83.69
2022-10-18T10:09:29.771Z,84.39
2022-10-18T10:10:29.765Z,84.45
2022-10-18T10:11:29.768Z,84.25
2022-10-18T10:12:29.757Z,82.95
2022-10-18T10:13:29.760Z,80.54
2022-10-18T10:14:29.739Z,81.71
2022-10-18T10:15:33.136Z,79.24
2022-10-18T10:16:30.714Z,82.31
2022-10-18T10:17:30.240Z,81.30
2022-10-18T10:18:29.720Z,79.30
2022-10-18T10:19:29.705Z,78.60
2022-10-18T10:20:29.689Z,78.84
2022-10-18T10:21:29.688Z,78.24
2022-10-18T10:22:29.695Z,79.14
2022-10-18T10:23:29.667Z,78.64
2022-10-18T10:24:31.163Z,77.58
2022-10-18T10:25:29.647Z,77.31
2022-10-18T10:26:29.652Z,77.81
2022-10-18T10:27:29.849Z,78.72
2022-10-18T10:28:29.673Z,79.32
2022-10-18T10:29:44.227Z,80.46
2022-10-18T10:30:31.617Z,80.36
2022-10-18T10:31:30.606Z,79.86
2022-10-18T10:32:29.625Z,80.86
2022-10-18T10:33:29.614Z,81.16
2022-10-18T10:34:29.595Z,80.80
2022-10-18T10:35:42.212Z,81.50
2022-10-18T10:36:30.580Z,81.06
2022-10-18T10:37:29.859Z,80.36
2022-10-18T10:38:29.567Z,81.46
2022-10-18T10:39:29.555Z,80.42
2022-10-18T10:40:29.612Z,79.08
2022-10-18T10:41:29.627Z,78.28
2022-10-18T10:42:29.785Z,78.54
2022-10-18T10:43:43.291Z,77.30
2022-10-18T10:44:31.522Z,79.49
2022-10-18T10:45:29.511Z,77.75
2022-10-18T10:46:29.506Z,76.62
2022-10-18T10:47:29.498Z,71.56
2022-10-18T10:48:33.111Z,73.09
2022-10-18T10:49:45.775Z,74.46
2022-10-18T10:50:31.508Z,75.68
2022-10-18T10:51:29.467Z,73.02
2022-10-18T10:52:29.461Z,68.99
2022-10-18T10:53:29.454Z,69.73
2022-10-18T10:54:30.475Z,70.26
2022-10-18T10:55:35.362Z,69.66
2022-10-18T10:56:31.454Z,65.39
2022-10-18T10:57:29.435Z,67.18
2022-10-18T10:58:29.431Z,68.04
2022-10-18T10:59:29.475Z,65.00
2022-10-18T11:00:29.426Z,61.51
2022-10-18T11:01:29.414Z,59.60
2022-10-18T11:02:29.649Z,58.19
2022-10-18T11:03:30.186Z,57.06
2022-10-18T11:04:30.394Z,60.14
2022-10-18T11:05:29.500Z,59.63
2022-10-18T11:06:29.380Z,58.53
2022-10-18T11:07:29.377Z,53.75
2022-10-18T11:08:29.380Z,52.40
2022-10-18T11:09:29.366Z,55.82
2022-10-18T11:10:29.489Z,51.10
2022-10-18T11:11:29.354Z,49.97
2022-10-18T11:12:29.505Z,52.19
2022-10-18T11:13:29.342Z,54.01
2022-10-18T11:14:29.335Z,54.82
2022-10-18T11:15:29.343Z,54.58
2022-10-18T11:16:29.323Z,54.90
2022-10-18T11:17:29.322Z,54.79
2022-10-18T11:18:29.319Z,57.31
2022-10-18T11:19:29.302Z,57.34
2022-10-18T11:20:29.310Z,57.93
2022-10-18T11:21:29.289Z,55.65
2022-10-18T11:22:30.841Z,56.80
2022-10-18T11:23:29.278Z,54.52
2022-10-18T11:24:29.277Z,51.45
2022-10-18T11:25:29.270Z,52.14
2022-10-18T11:26:29.268Z,52.93
2022-10-18T11:27:29.265Z,55.62
2022-10-18T11:28:29.282Z,54.29
2022-10-18T11:29:29.242Z,56.52
2022-10-18T11:30:29.246Z,58.02
2022-10-18T11:31:29.239Z,60.49
2022-10-18T11:32:29.439Z,61.14
2022-10-18T11:33:50.098Z,63.32
2022-10-18T11:34:31.219Z,65.24
2022-10-18T11:35:29.211Z,66.77
2022-10-18T11:36:30.542Z,66.10
2022-10-18T11:37:33.257Z,67.93
2022-10-18T11:38:31.186Z,68.56
2022-10-18T11:39:29.182Z,69.23
2022-10-18T11:40:29.182Z,67.04
2022-10-18T11:41:29.175Z,63.77
2022-10-18T11:42:29.162Z,57.68
2022-10-18T11:43:38.896Z,58.36
2022-10-18T11:44:31.178Z,52.78
2022-10-18T11:46:29.151Z,52.26
2022-10-18T11:47:29.270Z,51.67
2022-10-18T11:48:29.127Z,50.46
2022-10-18T11:49:29.123Z,51.50
2022-10-18T11:50:29.134Z,50.85
2022-10-18T11:51:38.752Z,49.55
2022-10-18T11:52:31.106Z,49.40
2022-10-18T11:53:29.095Z,49.01
2022-10-18T11:54:29.162Z,49.68
2022-10-18T11:55:32.761Z,50.21
2022-10-18T11:56:29.122Z,47.32
2022-10-18T11:57:29.086Z,47.71
2022-10-18T11:58:29.073Z,50.02
2022-10-18T11:59:29.062Z,48.28
2022-10-18T12:00:29.068Z,46.01
2022-10-18T12:01:29.082Z,45.75
2022-10-18T12:02:29.164Z,41.42
2022-10-18T12:03:29.046Z,42.40
2022-10-18T12:04:29.030Z,42.38
2022-10-18T12:05:29.046Z,40.16
2022-10-18T12:06:29.027Z,41.09
2022-10-18T12:07:32.377Z,42.46
2022-10-18T12:08:30.086Z,40.21
2022-10-18T12:09:29.003Z,41.91
2022-10-18T12:10:44.118Z,42.88
2022-10-18T12:11:31.009Z,44.92
2022-10-18T12:12:29.202Z,46.83
2022-10-18T12:13:29.006Z,46.78
2022-10-18T12:14:28.981Z,46.72
2022-10-18T12:15:28.967Z,48.22
2022-10-18T12:16:50.003Z,47.58
2022-10-18T12:17:49.908Z,49.50
2022-10-18T12:18:30.965Z,49.01
2022-10-18T12:19:28.958Z,47.83
2022-10-18T12:20:28.954Z,49.43
2022-10-18T12:21:28.949Z,49.26
2022-10-18T12:22:28.936Z,49.97
2022-10-18T12:23:28.939Z,50.88
2022-10-18T12:24:28.930Z,49.82
2022-10-18T12:25:28.914Z,50.54
2022-10-18T12:26:28.922Z,51.07
2022-10-18T12:27:28.900Z,49.67
2022-10-18T12:28:29.001Z,49.99
2022-10-18T12:29:28.890Z,49.99
2022-10-18T12:30:28.886Z,49.82
2022-10-18T12:31:28.890Z,50.76
2022-10-18T12:32:28.972Z,52.17
2022-10-18T12:33:29.242Z,54.04
2022-10-18T12:34:28.866Z,54.06
2022-10-18T12:35:28.858Z,54.17
2022-10-18T12:36:28.854Z,54.59
2022-10-18T12:37:28.851Z,54.81
2022-10-18T12:38:28.847Z,54.84
2022-10-18T12:39:38.761Z,55.76
2022-10-18T12:40:29.822Z,56.57
2022-10-18T12:41:28.818Z,57.20
2022-10-18T12:42:28.813Z,57.82
2022-10-18T12:43:28.810Z,58.17
2022-10-18T12:44:28.799Z,58.97
2022-10-18T12:45:28.789Z,58.62
2022-10-18T12:46:28.818Z,60.12
2022-10-18T12:47:28.817Z,60.61
2022-10-18T12:48:28.774Z,60.94
2022-10-18T12:49:28.759Z,62.43
2022-10-18T12:50:28.805Z,61.96
2022-10-18T12:51:28.769Z,62.56
2022-10-18T12:52:28.830Z,62.49
2022-10-18T12:53:28.803Z,63.39
2022-10-18T12:54:28.790Z,64.42
2022-10-18T12:55:28.817Z,65.54
2022-10-18T12:56:28.734Z,66.47